Date,TemperatureHighF,TemperatureAvgF,TemperatureLowF,DewpointHighF,DewpointAvgF,DewpointLowF,HumidityHigh,HumidityAvg,HumidityLow,PressureMaxIn,PressureMinIn,WindSpeedMaxMPH,WindSpeedAvgMPH,GustSpeedMaxMPH,PrecipitationSumIn
2013-3-1,40.1,33.9,30.0,23.7,18.7,16.0,60,53,50,30.28,30.13,17,6,17,0.00
2013-3-2,43.5,32.8,23.3,24.0,18.9,15.9,76,57,42,30.34,30.22,17,4,17,0.00
2013-3-3,55.6,38.9,20.8,32.8,24.3,15.9,87,58,41,30.22,29.89,13,3,13,0.00
2013-3-4,61.0,48.4,40.4,47.3,37.4,27.2,97,66,58,29.89,29.66,16,5,16,0.00
2013-3-5,51.2,44.1,36.7,47.6,27.6,20.0,100,54,39,30.28,29.72,28,8,28,0.00
2013-3-6,50.2,37.6,26.8,29.9,22.3,14.5,80,54,43,30.40,30.25,14,3,14,0.00
2013-3-7,59.3,46.1,34.5,35.7,30.1,25.0,83,55,41,30.31,30.19,14,4,14,0.00
2013-3-8,60.4,49.1,33.4,38.4,33.1,28.1,87,55,44,30.31,30.10,14,5,14,0.00
2013-3-9,66.9,57.8,48.2,54.7,43.0,33.5,98,58,48,30.10,29.75,28,6,28,0.47
2013-3-10,55.7,48.4,34.9,55.4,44.5,27.1,100,87,60,29.92,29.63,28,7,28,1.81
2013-3-11,48.7,37.9,31.1,29.4,25.3,22.0,81,61,46,30.04,29.92,21,8,21,0.00
2013-3-12,60.1,42.5,26.4,39.0,29.4,24.0,95,64,36,30.28,30.01,24,3,24,0.00
2013-3-13,57.4,44.0,26.2,31.3,24.8,18.7,78,48,37,30.42,30.28,17,3,17,0.00
2013-3-14,68.7,47.1,28.9,43.6,32.8,22.4,86,60,37,30.37,30.10,10,1,10,0.00
2013-3-15,79.0,57.6,36.1,52.1,43.4,36.1,100,65,37,30.13,29.83,19,3,19,0.00
2013-3-16,78.6,60.7,43.3,52.6,46.6,41.5,96,63,40,29.86,29.72,12,2,12,0.00
2013-3-17,62.8,49.8,43.7,50.1,44.1,41.4,100,83,54,29.86,29.69,10,4,11,0.08
2013-3-18,57.7,48.1,36.7,46.6,41.0,32.0,100,79,45,30.04,29.69,15,3,15,0.00
2013-3-19,57.5,45.3,30.7,39.2,31.2,25.8,100,64,37,30.19,30.01,10,2,10,0.00
2013-3-20,53.9,42.7,28.2,32.3,25.9,19.5,90,53,37,30.31,30.10,20,4,20,0.00
2013-3-21,42.1,36.2,32.3,34.7,24.1,17.4,100,64,43,30.10,29.86,16,5,16,0.35
2013-3-22,42.1,38.2,33.1,38.4,34.3,30.5,100,86,74,29.92,29.80,14,5,14,0.43
2013-3-23,43.0,40.8,38.1,42.6,38.4,32.9,100,92,76,29.92,29.69,8,3,8,0.35
2013-3-24,41.7,36.8,31.1,41.7,29.1,17.2,100,75,56,30.10,29.63,28,9,28,0.00
2013-3-25,37.4,31.6,24.6,21.7,18.7,16.2,75,59,50,30.31,30.10,19,6,19,0.00
2013-3-26,47.1,34.4,24.2,27.9,21.6,16.8,89,61,46,30.42,30.31,15,4,15,0.00
2013-3-27,60.8,41.4,22.6,35.4,28.1,21.5,98,64,36,30.34,30.16,14,2,14,0.00
2013-3-28,69.6,55.6,43.1,46.0,38.2,30.1,75,53,43,30.25,30.10,8,3,8,0.00
2013-3-29,61.5,55.8,50.3,56.1,50.5,44.5,100,83,65,30.19,30.10,8,2,8,0.47
2013-3-30,66.5,57.0,51.1,55.2,52.0,49.1,100,85,58,30.13,29.89,9,3,9,0.39
2013-3-31,67.6,57.5,48.0,55.7,49.5,44.8,100,78,46,29.95,29.83,11,2,11,0.00